sensor_id;sensor_type;location;lat;lon;timestamp;P1;durP1;ratioP1;P2;durP2;ratioP2
17595;SDS011;8916;47.086;15.920;2022-07-06T00:01:44;11.23;;;10.23;;
17595;SDS011;8916;47.086;15.920;2022-07-06T00:04:14;12.68;;;9.90;;
17595;SDS011;8916;47.086;15.920;2022-07-06T00:06:43;14.32;;;10.07;;
17595;SDS011;8916;47.086;15.920;2022-07-06T00:09:12;10.00;;;9.02;;
17595;SDS011;8916;47.086;15.920;2022-07-06T00:11:43;9.90;;;8.80;;
17595;SDS011;8916;47.086;15.920;2022-07-06T00:14:12;9.73;;;8.82;;
17595;SDS011;8916;47.086;15.920;2022-07-06T00:16:41;12.18;;;8.93;;
17595;SDS011;8916;47.086;15.920;2022-07-06T00:19:10;9.43;;;8.52;;
17595;SDS011;8916;47.086;15.920;2022-07-06T00:21:39;10.40;;;8.05;;
17595;SDS011;8916;47.086;15.920;2022-07-06T00:24:08;13.57;;;9.25;;
17595;SDS011;8916;47.086;15.920;2022-07-06T00:26:38;10.60;;;8.60;;
17595;SDS011;8916;47.086;15.920;2022-07-06T00:29:08;9.90;;;8.23;;
17595;SDS011;8916;47.086;15.920;2022-07-06T00:31:37;8.70;;;7.82;;
17595;SDS011;8916;47.086;15.920;2022-07-06T00:34:07;16.00;;;9.75;;
17595;SDS011;8916;47.086;15.920;2022-07-06T00:36:36;13.18;;;9.57;;
17595;SDS011;8916;47.086;15.920;2022-07-06T00:39:05;13.30;;;10.52;;
17595;SDS011;8916;47.086;15.920;2022-07-06T00:41:34;12.27;;;10.82;;
17595;SDS011;8916;47.086;15.920;2022-07-06T00:44:07;12.27;;;9.65;;
17595;SDS011;8916;47.086;15.920;2022-07-06T00:46:37;12.18;;;9.10;;
17595;SDS011;8916;47.086;15.920;2022-07-06T00:49:07;9.27;;;8.38;;
17595;SDS011;8916;47.086;15.920;2022-07-06T00:51:56;10.05;;;8.98;;
17595;SDS011;8916;47.086;15.920;2022-07-06T00:54:26;10.15;;;8.65;;
17595;SDS011;8916;47.086;15.920;2022-07-06T00:56:59;11.65;;;8.73;;
17595;SDS011;8916;47.086;15.920;2022-07-06T00:59:30;14.80;;;9.20;;
17595;SDS011;8916;47.086;15.920;2022-07-06T01:01:59;13.25;;;8.98;;
17595;SDS011;8916;47.086;15.920;2022-07-06T01:04:29;15.50;;;9.43;;
17595;SDS011;8916;47.086;15.920;2022-07-06T01:06:58;11.00;;;9.60;;
17595;SDS011;8916;47.086;15.920;2022-07-06T01:09:27;10.77;;;9.68;;
17595;SDS011;8916;47.086;15.920;2022-07-06T01:11:56;12.27;;;10.82;;
17595;SDS011;8916;47.086;15.920;2022-07-06T01:14:26;17.92;;;11.90;;
17595;SDS011;8916;47.086;15.920;2022-07-06T01:16:57;14.68;;;12.65;;
17595;SDS011;8916;47.086;15.920;2022-07-06T01:19:26;14.73;;;13.20;;
17595;SDS011;8916;47.086;15.920;2022-07-06T01:21:57;16.00;;;13.52;;
17595;SDS011;8916;47.086;15.920;2022-07-06T01:24:27;14.57;;;12.30;;
17595;SDS011;8916;47.086;15.920;2022-07-06T01:26:56;14.05;;;12.57;;
17595;SDS011;8916;47.086;15.920;2022-07-06T01:29:26;13.63;;;11.15;;
17595;SDS011;8916;47.086;15.920;2022-07-06T01:31:55;12.60;;;10.65;;
17595;SDS011;8916;47.086;15.920;2022-07-06T01:34:25;14.73;;;11.27;;
17595;SDS011;8916;47.086;15.920;2022-07-06T01:36:56;13.35;;;10.50;;
17595;SDS011;8916;47.086;15.920;2022-07-06T01:39:25;13.98;;;12.05;;
17595;SDS011;8916;47.086;15.920;2022-07-06T01:41:54;15.32;;;13.68;;
17595;SDS011;8916;47.086;15.920;2022-07-06T01:44:23;15.38;;;12.63;;
17595;SDS011;8916;47.086;15.920;2022-07-06T01:46:53;15.95;;;12.07;;
17595;SDS011;8916;47.086;15.920;2022-07-06T01:49:22;13.52;;;11.02;;
17595;SDS011;8916;47.086;15.920;2022-07-06T01:51:51;15.48;;;12.77;;
17595;SDS011;8916;47.086;15.920;2022-07-06T01:54:23;15.88;;;12.88;;
17595;SDS011;8916;47.086;15.920;2022-07-06T01:56:52;17.42;;;12.43;;
17595;SDS011;8916;47.086;15.920;2022-07-06T01:59:24;14.85;;;12.63;;
17595;SDS011;8916;47.086;15.920;2022-07-06T02:01:53;17.58;;;13.75;;
17595;SDS011;8916;47.086;15.920;2022-07-06T02:04:23;18.75;;;15.25;;
17595;SDS011;8916;47.086;15.920;2022-07-06T02:06:52;18.33;;;14.10;;
17595;SDS011;8916;47.086;15.920;2022-07-06T02:09:24;17.67;;;14.75;;
17595;SDS011;8916;47.086;15.920;2022-07-06T02:11:53;15.65;;;13.60;;
17595;SDS011;8916;47.086;15.920;2022-07-06T02:14:23;15.73;;;13.73;;
17595;SDS011;8916;47.086;15.920;2022-07-06T02:16:52;17.75;;;13.75;;
17595;SDS011;8916;47.086;15.920;2022-07-06T02:19:21;15.75;;;14.20;;
17595;SDS011;8916;47.086;15.920;2022-07-06T02:21:50;15.43;;;13.80;;
17595;SDS011;8916;47.086;15.920;2022-07-06T02:24:19;14.25;;;12.75;;
17595;SDS011;8916;47.086;15.920;2022-07-06T02:26:50;14.48;;;12.70;;
17595;SDS011;8916;47.086;15.920;2022-07-06T02:29:19;13.93;;;11.30;;
17595;SDS011;8916;47.086;15.920;2022-07-06T02:31:49;13.75;;;12.23;;
17595;SDS011;8916;47.086;15.920;2022-07-06T02:34:18;21.83;;;13.85;;
17595;SDS011;8916;47.086;15.920;2022-07-06T02:36:49;16.00;;;12.50;;
17595;SDS011;8916;47.086;15.920;2022-07-06T02:39:19;15.73;;;14.13;;
17595;SDS011;8916;47.086;15.920;2022-07-06T02:41:50;20.60;;;13.70;;
17595;SDS011;8916;47.086;15.920;2022-07-06T02:44:19;16.05;;;12.75;;
17595;SDS011;8916;47.086;15.920;2022-07-06T02:46:48;15.30;;;12.82;;
17595;SDS011;8916;47.086;15.920;2022-07-06T02:49:18;14.82;;;13.20;;
17595;SDS011;8916;47.086;15.920;2022-07-06T02:51:47;14.65;;;13.15;;
17595;SDS011;8916;47.086;15.920;2022-07-06T02:54:17;16.95;;;13.02;;
17595;SDS011;8916;47.086;15.920;2022-07-06T02:56:46;14.38;;;12.88;;
17595;SDS011;8916;47.086;15.920;2022-07-06T02:59:21;14.48;;;12.68;;
17595;SDS011;8916;47.086;15.920;2022-07-06T03:01:50;15.13;;;12.30;;
17595;SDS011;8916;47.086;15.920;2022-07-06T03:04:20;15.60;;;11.98;;
17595;SDS011;8916;47.086;15.920;2022-07-06T03:06:50;14.70;;;12.07;;
17595;SDS011;8916;47.086;15.920;2022-07-06T03:09:21;19.63;;;10.48;;
17595;SDS011;8916;47.086;15.920;2022-07-06T03:11:51;14.73;;;10.75;;
17595;SDS011;8916;47.086;15.920;2022-07-06T03:14:22;12.57;;;11.27;;
17595;SDS011;8916;47.086;15.920;2022-07-06T03:16:52;13.23;;;10.93;;
17595;SDS011;8916;47.086;15.920;2022-07-06T03:19:22;16.92;;;10.32;;
17595;SDS011;8916;47.086;15.920;2022-07-06T03:21:52;15.55;;;10.77;;
17595;SDS011;8916;47.086;15.920;2022-07-06T03:24:21;12.60;;;10.82;;
17595;SDS011;8916;47.086;15.920;2022-07-06T03:26:50;12.95;;;10.30;;
17595;SDS011;8916;47.086;15.920;2022-07-06T03:29:20;11.98;;;10.13;;
17595;SDS011;8916;47.086;15.920;2022-07-06T03:31:51;14.43;;;11.05;;
17595;SDS011;8916;47.086;15.920;2022-07-06T03:34:20;11.75;;;9.80;;
17595;SDS011;8916;47.086;15.920;2022-07-06T03:36:50;15.50;;;11.13;;
17595;SDS011;8916;47.086;15.920;2022-07-06T03:39:19;11.80;;;10.57;;
17595;SDS011;8916;47.086;15.920;2022-07-06T03:41:50;14.50;;;11.50;;
17595;SDS011;8916;47.086;15.920;2022-07-06T03:44:20;13.65;;;12.07;;
17595;SDS011;8916;47.086;15.920;2022-07-06T03:46:49;16.08;;;12.63;;
17595;SDS011;8916;47.086;15.920;2022-07-06T03:49:22;19.00;;;13.27;;
17595;SDS011;8916;47.086;15.920;2022-07-06T03:51:56;21.52;;;14.80;;
17595;SDS011;8916;47.086;15.920;2022-07-06T03:54:26;17.73;;;13.32;;
17595;SDS011;8916;47.086;15.920;2022-07-06T03:56:58;14.30;;;12.40;;
17595;SDS011;8916;47.086;15.920;2022-07-06T03:59:27;16.42;;;11.85;;
17595;SDS011;8916;47.086;15.920;2022-07-06T04:01:57;16.38;;;12.50;;
17595;SDS011;8916;47.086;15.920;2022-07-06T04:04:27;15.75;;;12.25;;
17595;SDS011;8916;47.086;15.920;2022-07-06T04:06:57;20.83;;;13.07;;
17595;SDS011;8916;47.086;15.920;2022-07-06T04:09:27;15.38;;;13.00;;
17595;SDS011;8916;47.086;15.920;2022-07-06T04:11:56;17.73;;;12.90;;
17595;SDS011;8916;47.086;15.920;2022-07-06T04:14:26;13.95;;;12.40;;
17595;SDS011;8916;47.086;15.920;2022-07-06T04:16:56;13.13;;;11.73;;
17595;SDS011;8916;47.086;15.920;2022-07-06T04:19:25;13.80;;;11.65;;
17595;SDS011;8916;47.086;15.920;2022-07-06T04:21:56;11.38;;;10.10;;
17595;SDS011;8916;47.086;15.920;2022-07-06T04:24:25;12.60;;;9.55;;
17595;SDS011;8916;47.086;15.920;2022-07-06T04:26:54;11.05;;;9.40;;
17595;SDS011;8916;47.086;15.920;2022-07-06T04:29:23;15.57;;;9.40;;
17595;SDS011;8916;47.086;15.920;2022-07-06T04:31:53;14.77;;;9.45;;
17595;SDS011;8916;47.086;15.920;2022-07-06T04:34:22;13.98;;;8.85;;
17595;SDS011;8916;47.086;15.920;2022-07-06T04:36:53;11.23;;;8.30;;
17595;SDS011;8916;47.086;15.920;2022-07-06T04:39:22;10.70;;;8.10;;
17595;SDS011;8916;47.086;15.920;2022-07-06T04:41:52;8.10;;;7.30;;
17595;SDS011;8916;47.086;15.920;2022-07-06T04:44:22;14.60;;;7.90;;
17595;SDS011;8916;47.086;15.920;2022-07-06T04:46:51;10.95;;;6.82;;
17595;SDS011;8916;47.086;15.920;2022-07-06T04:49:21;8.32;;;7.03;;
17595;SDS011;8916;47.086;15.920;2022-07-06T04:51:52;9.02;;;7.07;;
17595;SDS011;8916;47.086;15.920;2022-07-06T04:54:22;10.48;;;7.53;;
17595;SDS011;8916;47.086;15.920;2022-07-06T04:56:51;7.65;;;6.85;;
17595;SDS011;8916;47.086;15.920;2022-07-06T04:59:21;8.18;;;6.68;;
17595;SDS011;8916;47.086;15.920;2022-07-06T05:01:51;10.60;;;6.90;;
17595;SDS011;8916;47.086;15.920;2022-07-06T05:04:20;10.50;;;6.72;;
17595;SDS011;8916;47.086;15.920;2022-07-06T05:06:52;9.75;;;6.40;;
17595;SDS011;8916;47.086;15.920;2022-07-06T05:09:21;10.40;;;6.38;;
17595;SDS011;8916;47.086;15.920;2022-07-06T05:11:53;8.23;;;6.40;;
17595;SDS011;8916;47.086;15.920;2022-07-06T05:14:22;7.03;;;6.32;;
17595;SDS011;8916;47.086;15.920;2022-07-06T05:16:53;13.13;;;6.18;;
17595;SDS011;8916;47.086;15.920;2022-07-06T05:19:25;9.85;;;7.20;;
17595;SDS011;8916;47.086;15.920;2022-07-06T05:21:57;9.18;;;7.18;;
17595;SDS011;8916;47.086;15.920;2022-07-06T05:24:26;9.02;;;6.55;;
17595;SDS011;8916;47.086;15.920;2022-07-06T05:26:55;9.88;;;6.95;;
17595;SDS011;8916;47.086;15.920;2022-07-06T05:29:24;11.60;;;7.38;;
17595;SDS011;8916;47.086;15.920;2022-07-06T05:31:53;11.30;;;7.03;;
17595;SDS011;8916;47.086;15.920;2022-07-06T05:34:23;10.40;;;7.57;;
17595;SDS011;8916;47.086;15.920;2022-07-06T05:36:52;8.88;;;7.22;;
17595;SDS011;8916;47.086;15.920;2022-07-06T05:39:23;10.95;;;7.43;;
17595;SDS011;8916;47.086;15.920;2022-07-06T05:41:52;9.52;;;7.30;;
17595;SDS011;8916;47.086;15.920;2022-07-06T05:44:21;9.27;;;7.45;;
17595;SDS011;8916;47.086;15.920;2022-07-06T05:46:50;10.90;;;7.47;;
17595;SDS011;8916;47.086;15.920;2022-07-06T05:49:40;11.48;;;7.22;;
17595;SDS011;8916;47.086;15.920;2022-07-06T05:52:27;10.20;;;7.40;;
17595;SDS011;8916;47.086;15.920;2022-07-06T05:54:57;9.73;;;6.53;;
17595;SDS011;8916;47.086;15.920;2022-07-06T05:57:26;8.73;;;6.72;;
17595;SDS011;8916;47.086;15.920;2022-07-06T05:59:55;7.32;;;6.40;;
17595;SDS011;8916;47.086;15.920;2022-07-06T06:02:26;10.98;;;5.88;;
17595;SDS011;8916;47.086;15.920;2022-07-06T06:04:55;10.60;;;5.93;;
17595;SDS011;8916;47.086;15.920;2022-07-06T06:07:25;7.15;;;5.40;;
17595;SDS011;8916;47.086;15.920;2022-07-06T06:09:54;9.88;;;5.20;;
17595;SDS011;8916;47.086;15.920;2022-07-06T06:12:25;11.50;;;5.47;;
17595;SDS011;8916;47.086;15.920;2022-07-06T06:14:54;6.72;;;5.40;;
17595;SDS011;8916;47.086;15.920;2022-07-06T06:17:23;9.15;;;5.45;;
17595;SDS011;8916;47.086;15.920;2022-07-06T06:19:52;7.95;;;4.95;;
17595;SDS011;8916;47.086;15.920;2022-07-06T06:22:22;6.97;;;5.28;;
17595;SDS011;8916;47.086;15.920;2022-07-06T06:24:51;7.13;;;5.45;;
17595;SDS011;8916;47.086;15.920;2022-07-06T06:27:25;8.32;;;5.88;;
17595;SDS011;8916;47.086;15.920;2022-07-06T06:29:54;6.90;;;5.05;;
17595;SDS011;8916;47.086;15.920;2022-07-06T06:32:23;7.15;;;4.50;;
17595;SDS011;8916;47.086;15.920;2022-07-06T06:34:52;8.55;;;4.65;;
17595;SDS011;8916;47.086;15.920;2022-07-06T06:37:21;6.32;;;4.97;;
17595;SDS011;8916;47.086;15.920;2022-07-06T06:39:54;8.63;;;4.80;;
17595;SDS011;8916;47.086;15.920;2022-07-06T06:42:25;7.00;;;4.93;;
17595;SDS011;8916;47.086;15.920;2022-07-06T06:44:57;6.05;;;4.35;;
17595;SDS011;8916;47.086;15.920;2022-07-06T06:47:26;5.28;;;4.13;;
17595;SDS011;8916;47.086;15.920;2022-07-06T06:49:55;8.38;;;4.30;;
17595;SDS011;8916;47.086;15.920;2022-07-06T06:52:24;7.63;;;4.20;;
17595;SDS011;8916;47.086;15.920;2022-07-06T06:55:08;5.22;;;4.20;;
17595;SDS011;8916;47.086;15.920;2022-07-06T06:57:39;5.20;;;4.50;;
17595;SDS011;8916;47.086;15.920;2022-07-06T07:00:08;4.70;;;3.88;;
17595;SDS011;8916;47.086;15.920;2022-07-06T07:02:39;5.57;;;4.10;;
17595;SDS011;8916;47.086;15.920;2022-07-06T07:05:09;4.82;;;3.50;;
17595;SDS011;8916;47.086;15.920;2022-07-06T07:07:38;4.25;;;3.65;;
17595;SDS011;8916;47.086;15.920;2022-07-06T07:10:08;5.68;;;3.33;;
17595;SDS011;8916;47.086;15.920;2022-07-06T07:12:43;5.00;;;3.20;;
17595;SDS011;8916;47.086;15.920;2022-07-06T07:15:14;3.92;;;2.90;;
17595;SDS011;8916;47.086;15.920;2022-07-06T07:17:43;7.93;;;3.22;;
17595;SDS011;8916;47.086;15.920;2022-07-06T07:20:13;3.28;;;2.95;;
17595;SDS011;8916;47.086;15.920;2022-07-06T07:22:42;3.30;;;3.00;;
17595;SDS011;8916;47.086;15.920;2022-07-06T07:25:11;6.47;;;3.30;;
17595;SDS011;8916;47.086;15.920;2022-07-06T07:27:41;5.80;;;3.20;;
17595;SDS011;8916;47.086;15.920;2022-07-06T07:30:11;9.75;;;4.05;;
17595;SDS011;8916;47.086;15.920;2022-07-06T07:32:41;3.58;;;3.17;;
17595;SDS011;8916;47.086;15.920;2022-07-06T07:35:10;3.38;;;3.08;;
17595;SDS011;8916;47.086;15.920;2022-07-06T07:37:39;5.78;;;3.17;;
17595;SDS011;8916;47.086;15.920;2022-07-06T07:40:08;3.80;;;3.00;;
17595;SDS011;8916;47.086;15.920;2022-07-06T07:42:38;3.70;;;2.88;;
17595;SDS011;8916;47.086;15.920;2022-07-06T07:45:09;11.85;;;4.05;;
17595;SDS011;8916;47.086;15.920;2022-07-06T07:47:39;5.38;;;2.92;;
17595;SDS011;8916;47.086;15.920;2022-07-06T07:50:08;6.40;;;3.00;;
17595;SDS011;8916;47.086;15.920;2022-07-06T07:52:38;5.32;;;3.10;;
17595;SDS011;8916;47.086;15.920;2022-07-06T07:55:07;17.48;;;3.58;;
17595;SDS011;8916;47.086;15.920;2022-07-06T07:57:57;6.18;;;3.00;;
17595;SDS011;8916;47.086;15.920;2022-07-06T08:00:27;4.70;;;2.85;;
17595;SDS011;8916;47.086;15.920;2022-07-06T08:02:56;3.15;;;2.70;;
17595;SDS011;8916;47.086;15.920;2022-07-06T08:05:25;4.03;;;2.60;;
17595;SDS011;8916;47.086;15.920;2022-07-06T08:07:54;4.00;;;2.63;;
17595;SDS011;8916;47.086;15.920;2022-07-06T08:10:23;8.57;;;3.88;;
17595;SDS011;8916;47.086;15.920;2022-07-06T08:12:53;5.35;;;3.42;;
17595;SDS011;8916;47.086;15.920;2022-07-06T08:15:22;3.58;;;2.65;;
17595;SDS011;8916;47.086;15.920;2022-07-06T08:17:52;4.90;;;2.50;;
17595;SDS011;8916;47.086;15.920;2022-07-06T08:20:22;3.47;;;2.30;;
17595;SDS011;8916;47.086;15.920;2022-07-06T08:22:51;4.72;;;2.70;;
17595;SDS011;8916;47.086;15.920;2022-07-06T08:25:20;6.28;;;2.90;;
17595;SDS011;8916;47.086;15.920;2022-07-06T08:27:49;3.45;;;2.35;;
17595;SDS011;8916;47.086;15.920;2022-07-06T08:30:19;5.85;;;2.67;;
17595;SDS011;8916;47.086;15.920;2022-07-06T08:32:48;5.03;;;2.72;;
17595;SDS011;8916;47.086;15.920;2022-07-06T08:35:35;3.05;;;2.53;;
17595;SDS011;8916;47.086;15.920;2022-07-06T08:38:04;3.95;;;2.53;;
17595;SDS011;8916;47.086;15.920;2022-07-06T08:40:34;7.00;;;2.50;;
17595;SDS011;8916;47.086;15.920;2022-07-06T08:43:04;2.88;;;2.28;;
17595;SDS011;8916;47.086;15.920;2022-07-06T08:45:34;8.65;;;2.40;;
17595;SDS011;8916;47.086;15.920;2022-07-06T08:48:04;7.45;;;2.40;;
17595;SDS011;8916;47.086;15.920;2022-07-06T08:50:36;2.97;;;2.30;;
17595;SDS011;8916;47.086;15.920;2022-07-06T08:53:06;6.30;;;2.63;;
17595;SDS011;8916;47.086;15.920;2022-07-06T08:55:35;3.08;;;2.38;;
17595;SDS011;8916;47.086;15.920;2022-07-06T08:58:04;3.03;;;2.20;;
17595;SDS011;8916;47.086;15.920;2022-07-06T09:00:34;4.15;;;2.45;;
17595;SDS011;8916;47.086;15.920;2022-07-06T09:03:04;5.75;;;2.38;;
17595;SDS011;8916;47.086;15.920;2022-07-06T09:05:33;6.60;;;2.30;;
17595;SDS011;8916;47.086;15.920;2022-07-06T09:08:05;3.58;;;2.38;;
17595;SDS011;8916;47.086;15.920;2022-07-06T09:10:34;2.88;;;2.10;;
17595;SDS011;8916;47.086;15.920;2022-07-06T09:13:05;4.28;;;1.92;;
17595;SDS011;8916;47.086;15.920;2022-07-06T09:15:36;3.60;;;2.22;;
17595;SDS011;8916;47.086;15.920;2022-07-06T09:18:06;3.13;;;2.08;;
17595;SDS011;8916;47.086;15.920;2022-07-06T09:20:36;6.40;;;2.58;;
17595;SDS011;8916;47.086;15.920;2022-07-06T09:23:06;4.40;;;2.20;;
17595;SDS011;8916;47.086;15.920;2022-07-06T09:25:42;6.55;;;2.20;;
17595;SDS011;8916;47.086;15.920;2022-07-06T09:28:17;5.97;;;2.40;;
17595;SDS011;8916;47.086;15.920;2022-07-06T09:30:47;4.50;;;1.90;;
17595;SDS011;8916;47.086;15.920;2022-07-06T09:33:17;5.93;;;2.35;;
17595;SDS011;8916;47.086;15.920;2022-07-06T09:35:46;7.82;;;2.50;;
17595;SDS011;8916;47.086;15.920;2022-07-06T09:38:17;4.32;;;1.60;;
17595;SDS011;8916;47.086;15.920;2022-07-06T09:40:49;3.55;;;1.60;;
17595;SDS011;8916;47.086;15.920;2022-07-06T09:43:19;3.42;;;2.00;;
17595;SDS011;8916;47.086;15.920;2022-07-06T09:45:53;3.50;;;1.98;;
17595;SDS011;8916;47.086;15.920;2022-07-06T09:48:24;6.25;;;1.88;;
17595;SDS011;8916;47.086;15.920;2022-07-06T09:50:56;3.72;;;1.73;;
17595;SDS011;8916;47.086;15.920;2022-07-06T09:53:31;4.93;;;1.70;;
17595;SDS011;8916;47.086;15.920;2022-07-06T09:56:03;2.88;;;1.80;;
17595;SDS011;8916;47.086;15.920;2022-07-06T09:58:34;4.65;;;1.70;;
17595;SDS011;8916;47.086;15.920;2022-07-06T10:01:27;3.20;;;1.83;;
17595;SDS011;8916;47.086;15.920;2022-07-06T10:03:57;2.58;;;1.33;;
17595;SDS011;8916;47.086;15.920;2022-07-06T10:06:26;3.13;;;1.90;;
17595;SDS011;8916;47.086;15.920;2022-07-06T10:08:57;3.25;;;1.40;;
17595;SDS011;8916;47.086;15.920;2022-07-06T10:11:28;2.88;;;1.60;;
17595;SDS011;8916;47.086;15.920;2022-07-06T10:13:58;3.53;;;1.60;;
17595;SDS011;8916;47.086;15.920;2022-07-06T10:16:32;3.00;;;1.80;;
17595;SDS011;8916;47.086;15.920;2022-07-06T10:19:06;2.67;;;1.40;;
17595;SDS011;8916;47.086;15.920;2022-07-06T10:21:36;3.38;;;1.73;;
17595;SDS011;8916;47.086;15.920;2022-07-06T10:24:08;5.47;;;1.60;;
17595;SDS011;8916;47.086;15.920;2022-07-06T10:26:40;5.03;;;1.33;;
17595;SDS011;8916;47.086;15.920;2022-07-06T10:29:10;3.33;;;1.40;;
17595;SDS011;8916;47.086;15.920;2022-07-06T10:31:40;2.65;;;1.30;;
17595;SDS011;8916;47.086;15.920;2022-07-06T10:34:15;3.38;;;1.58;;
17595;SDS011;8916;47.086;15.920;2022-07-06T10:36:48;3.13;;;1.50;;
17595;SDS011;8916;47.086;15.920;2022-07-06T10:39:34;3.40;;;1.45;;
17595;SDS011;8916;47.086;15.920;2022-07-06T10:42:41;2.67;;;1.40;;
17595;SDS011;8916;47.086;15.920;2022-07-06T10:45:13;3.15;;;1.52;;
17595;SDS011;8916;47.086;15.920;2022-07-06T10:47:47;2.15;;;1.60;;
17595;SDS011;8916;47.086;15.920;2022-07-06T10:50:37;4.40;;;1.75;;
17595;SDS011;8916;47.086;15.920;2022-07-06T10:53:10;2.63;;;1.60;;
17595;SDS011;8916;47.086;15.920;2022-07-06T10:55:42;1.77;;;1.38;;
17595;SDS011;8916;47.086;15.920;2022-07-06T10:58:15;3.60;;;1.42;;
17595;SDS011;8916;47.086;15.920;2022-07-06T11:01:02;2.05;;;1.58;;
17595;SDS011;8916;47.086;15.920;2022-07-06T11:03:34;2.40;;;1.33;;
17595;SDS011;8916;47.086;15.920;2022-07-06T11:06:06;2.20;;;1.40;;
17595;SDS011;8916;47.086;15.920;2022-07-06T11:08:42;5.03;;;1.40;;
17595;SDS011;8916;47.086;15.920;2022-07-06T11:11:22;3.13;;;1.38;;
17595;SDS011;8916;47.086;15.920;2022-07-06T11:13:55;4.47;;;1.48;;
17595;SDS011;8916;47.086;15.920;2022-07-06T11:16:29;6.47;;;2.10;;
17595;SDS011;8916;47.086;15.920;2022-07-06T11:19:05;3.45;;;1.98;;
17595;SDS011;8916;47.086;15.920;2022-07-06T11:21:40;3.63;;;1.95;;
17595;SDS011;8916;47.086;15.920;2022-07-06T11:24:14;2.15;;;1.55;;
17595;SDS011;8916;47.086;15.920;2022-07-06T11:26:47;2.80;;;1.73;;
17595;SDS011;8916;47.086;15.920;2022-07-06T11:29:19;3.17;;;1.42;;
17595;SDS011;8916;47.086;15.920;2022-07-06T11:31:50;4.35;;;1.70;;
17595;SDS011;8916;47.086;15.920;2022-07-06T11:34:21;1.83;;;1.48;;
17595;SDS011;8916;47.086;15.920;2022-07-06T11:36:56;1.92;;;1.40;;
17595;SDS011;8916;47.086;15.920;2022-07-06T11:39:27;2.85;;;1.58;;
17595;SDS011;8916;47.086;15.920;2022-07-06T11:41:59;1.83;;;1.33;;
17595;SDS011;8916;47.086;15.920;2022-07-06T11:44:31;2.78;;;1.60;;
17595;SDS011;8916;47.086;15.920;2022-07-06T11:47:01;2.70;;;1.65;;
17595;SDS011;8916;47.086;15.920;2022-07-06T11:49:32;2.20;;;1.13;;
17595;SDS011;8916;47.086;15.920;2022-07-06T11:52:05;4.30;;;1.70;;
17595;SDS011;8916;47.086;15.920;2022-07-06T11:54:35;5.65;;;1.63;;
17595;SDS011;8916;47.086;15.920;2022-07-06T11:57:07;2.58;;;1.75;;
17595;SDS011;8916;47.086;15.920;2022-07-06T11:59:38;4.10;;;1.30;;
17595;SDS011;8916;47.086;15.920;2022-07-06T12:02:10;4.55;;;1.48;;
17595;SDS011;8916;47.086;15.920;2022-07-06T12:04:41;2.38;;;1.42;;
17595;SDS011;8916;47.086;15.920;2022-07-06T12:07:13;2.22;;;1.50;;
17595;SDS011;8916;47.086;15.920;2022-07-06T12:09:44;3.85;;;1.45;;
17595;SDS011;8916;47.086;15.920;2022-07-06T12:12:17;4.53;;;1.27;;
17595;SDS011;8916;47.086;15.920;2022-07-06T12:14:46;3.03;;;1.42;;
17595;SDS011;8916;47.086;15.920;2022-07-06T12:17:15;1.52;;;1.40;;
17595;SDS011;8916;47.086;15.920;2022-07-06T12:19:44;1.50;;;1.25;;
17595;SDS011;8916;47.086;15.920;2022-07-06T12:22:24;2.03;;;1.20;;
17595;SDS011;8916;47.086;15.920;2022-07-06T12:24:53;2.22;;;1.50;;
17595;SDS011;8916;47.086;15.920;2022-07-06T12:27:24;4.30;;;1.60;;
17595;SDS011;8916;47.086;15.920;2022-07-06T12:29:53;1.58;;;1.20;;
17595;SDS011;8916;47.086;15.920;2022-07-06T12:32:37;2.13;;;1.40;;
17595;SDS011;8916;47.086;15.920;2022-07-06T12:35:07;3.60;;;1.30;;
17595;SDS011;8916;47.086;15.920;2022-07-06T12:37:40;3.03;;;1.30;;
17595;SDS011;8916;47.086;15.920;2022-07-06T12:40:25;1.58;;;1.20;;
17595;SDS011;8916;47.086;15.920;2022-07-06T12:42:57;3.85;;;1.73;;
17595;SDS011;8916;47.086;15.920;2022-07-06T12:45:26;1.60;;;1.33;;
17595;SDS011;8916;47.086;15.920;2022-07-06T12:47:56;4.28;;;1.20;;
17595;SDS011;8916;47.086;15.920;2022-07-06T12:50:30;4.40;;;1.50;;
17595;SDS011;8916;47.086;15.920;2022-07-06T12:53:01;1.67;;;1.40;;
17595;SDS011;8916;47.086;15.920;2022-07-06T12:55:31;2.67;;;1.27;;
17595;SDS011;8916;47.086;15.920;2022-07-06T12:58:02;1.75;;;1.23;;
17595;SDS011;8916;47.086;15.920;2022-07-06T13:00:34;2.88;;;1.45;;
17595;SDS011;8916;47.086;15.920;2022-07-06T13:03:13;2.47;;;1.50;;
17595;SDS011;8916;47.086;15.920;2022-07-06T13:05:48;1.38;;;1.27;;
17595;SDS011;8916;47.086;15.920;2022-07-06T13:08:17;5.10;;;1.10;;
17595;SDS011;8916;47.086;15.920;2022-07-06T13:10:47;2.42;;;1.63;;
17595;SDS011;8916;47.086;15.920;2022-07-06T13:13:19;1.40;;;1.30;;
17595;SDS011;8916;47.086;15.920;2022-07-06T13:15:49;2.63;;;1.50;;
17595;SDS011;8916;47.086;15.920;2022-07-06T13:18:18;2.05;;;1.33;;
17595;SDS011;8916;47.086;15.920;2022-07-06T13:20:48;2.13;;;1.40;;
17595;SDS011;8916;47.086;15.920;2022-07-06T13:23:17;1.92;;;1.42;;
17595;SDS011;8916;47.086;15.920;2022-07-06T13:25:46;2.00;;;1.40;;
17595;SDS011;8916;47.086;15.920;2022-07-06T13:28:15;2.72;;;1.48;;
17595;SDS011;8916;47.086;15.920;2022-07-06T13:30:45;2.95;;;1.48;;
17595;SDS011;8916;47.086;15.920;2022-07-06T13:33:14;4.10;;;1.38;;
17595;SDS011;8916;47.086;15.920;2022-07-06T13:35:44;4.10;;;1.50;;
17595;SDS011;8916;47.086;15.920;2022-07-06T13:38:13;1.83;;;1.33;;
17595;SDS011;8916;47.086;15.920;2022-07-06T13:40:42;2.10;;;1.30;;
17595;SDS011;8916;47.086;15.920;2022-07-06T13:43:11;3.80;;;1.40;;
17595;SDS011;8916;47.086;15.920;2022-07-06T13:45:40;2.72;;;1.45;;
17595;SDS011;8916;47.086;15.920;2022-07-06T13:48:11;1.40;;;1.30;;
17595;SDS011;8916;47.086;15.920;2022-07-06T13:50:40;2.50;;;1.40;;
17595;SDS011;8916;47.086;15.920;2022-07-06T13:53:09;2.97;;;1.65;;
17595;SDS011;8916;47.086;15.920;2022-07-06T13:55:38;4.25;;;1.77;;
17595;SDS011;8916;47.086;15.920;2022-07-06T13:58:07;2.75;;;1.42;;
17595;SDS011;8916;47.086;15.920;2022-07-06T14:00:37;2.78;;;1.70;;
17595;SDS011;8916;47.086;15.920;2022-07-06T14:03:06;1.83;;;1.35;;
17595;SDS011;8916;47.086;15.920;2022-07-06T14:05:37;3.65;;;1.48;;
17595;SDS011;8916;47.086;15.920;2022-07-06T14:08:06;2.63;;;1.38;;
17595;SDS011;8916;47.086;15.920;2022-07-06T14:10:35;3.33;;;1.23;;
17595;SDS011;8916;47.086;15.920;2022-07-06T14:13:04;3.10;;;1.33;;
17595;SDS011;8916;47.086;15.920;2022-07-06T14:15:33;2.33;;;1.23;;
17595;SDS011;8916;47.086;15.920;2022-07-06T14:18:03;2.90;;;1.70;;
17595;SDS011;8916;47.086;15.920;2022-07-06T14:20:32;2.30;;;1.40;;
17595;SDS011;8916;47.086;15.920;2022-07-06T14:23:03;3.40;;;1.65;;
17595;SDS011;8916;47.086;15.920;2022-07-06T14:25:32;6.05;;;1.45;;
17595;SDS011;8916;47.086;15.920;2022-07-06T14:28:01;1.60;;;1.40;;
17595;SDS011;8916;47.086;15.920;2022-07-06T14:30:30;2.03;;;1.50;;
17595;SDS011;8916;47.086;15.920;2022-07-06T14:32:59;2.75;;;1.60;;
17595;SDS011;8916;47.086;15.920;2022-07-06T14:35:29;3.90;;;1.48;;
17595;SDS011;8916;47.086;15.920;2022-07-06T14:37:58;1.85;;;1.38;;
17595;SDS011;8916;47.086;15.920;2022-07-06T14:40:29;3.38;;;1.80;;
17595;SDS011;8916;47.086;15.920;2022-07-06T14:42:59;2.13;;;1.60;;
17595;SDS011;8916;47.086;15.920;2022-07-06T14:45:29;3.67;;;1.60;;
17595;SDS011;8916;47.086;15.920;2022-07-06T14:47:59;2.95;;;1.60;;
17595;SDS011;8916;47.086;15.920;2022-07-06T14:50:28;3.90;;;1.50;;
17595;SDS011;8916;47.086;15.920;2022-07-06T14:52:57;2.63;;;1.60;;
17595;SDS011;8916;47.086;15.920;2022-07-06T14:55:26;6.45;;;1.60;;
17595;SDS011;8916;47.086;15.920;2022-07-06T14:57:57;5.32;;;1.83;;
17595;SDS011;8916;47.086;15.920;2022-07-06T15:00:26;2.65;;;1.50;;
17595;SDS011;8916;47.086;15.920;2022-07-06T15:02:55;5.95;;;1.88;;